Ayers Rock, Northern Territory

6:54 PM CST on July 10, 2014 (GMT +0930)
Ayers Rock (Connellan) (YAYE) Elev 1627 ft | 25.19 °S, 130.98 °E | Change Station

Current weather conditions updated 24 minutes ago

Clear
Clear
57 °F
Feels Like 57 °F
N
5
Wind Variable Wind from ESE

Tomorrow is forecast to be Warmer than today.

Today
High -- | Low -- °F
--% Chance of Precip.
Yesterday
High -- | Low -- °F
Precip. -- in
7:31 AM 6:11 PM
Waxing Gibbous, 94% visible
Pressure 30.12 in
Visibility 6.2 miles
Clouds
Dew Point 27 °F
Humidity 31%
Rainfall 0.00 in
Snow Depth Not available.
UV Not available.
Pollen Not available.
Air Quality Not available.
Flu Activity Not available.
METAR YAYE 100900Z AUTO 11004KT 9999 // NCD 14/M03 Q1020

More Conditions Fewer Conditions

Pressure 30.12 in
Visibility 6.2 miles
Clouds
Dew Point 27 °F
Humidity 31%
Rainfall 0.00 in
Snow Depth Not available.
UV Not available.
Pollen Not available.
Air Quality Not available.
Flu Activity Not available.
METAR YAYE 100900Z AUTO 11004KT 9999 // NCD 14/M03 Q1020

More Conditions Fewer Conditions

10-Day Weather Forecast

Almanac

Astronomy

Jul. 10, 2014 Rise Set
Actual Time 7:31 AM CST 6:11 PM CST
Civil Twilight 7:06 AM CST 6:36 PM CST
Nautical Twilight 6:38 AM CST 7:04 PM CST
Astronomical Twilight 6:10 AM CST 7:32 PM CST
Moon 4:03 PM CST 4:49 AM CST
Length of Visible Light 11h 29m
Length of Day
10h 39m
Tomorrow will be 0m 34s longer.
Waxing Gibbous, 94% of the Moon is Illuminated
Today
Waxing Gibbous
Jul 12
Full
Jul 18
Last Quarter
Jul 26
New
Aug 3
First Quarter

Yesterday's Extremes

Country Highs Country Lows

Community

WunderPhotos

Upload Photos

1,732,085 photos uploaded!

Nearby

Snow Depth

Not available.

Earthquake Activity

City Distance Mag. Time & Date
No recent earthquake activity has been reported nearby.
Minimum magnitude displayed is 2.5.

Coastal Water Temperatures

Place Temperature
No Stations Reporting

Nearby Weather Stations

There are no personal weather stations in this area.